sensor_id;sensor_type;location;lat;lon;timestamp;P1;durP1;ratioP1;P2;durP2;ratioP2
23306;SDS011;11822;52.470;10.688;2022-08-04T00:05:02;5.95;;;3.80;;
23306;SDS011;11822;52.470;10.688;2022-08-04T00:09:58;7.35;;;4.15;;
23306;SDS011;11822;52.470;10.688;2022-08-04T00:12:25;7.18;;;3.75;;
23306;SDS011;11822;52.470;10.688;2022-08-04T00:14:55;7.03;;;3.78;;
23306;SDS011;11822;52.470;10.688;2022-08-04T00:17:25;5.80;;;3.78;;
23306;SDS011;11822;52.470;10.688;2022-08-04T00:20:02;7.97;;;3.30;;
23306;SDS011;11822;52.470;10.688;2022-08-04T00:22:30;5.38;;;3.80;;
23306;SDS011;11822;52.470;10.688;2022-08-04T00:24:56;4.78;;;4.18;;
23306;SDS011;11822;52.470;10.688;2022-08-04T00:27:24;6.90;;;4.03;;
23306;SDS011;11822;52.470;10.688;2022-08-04T00:29:53;7.10;;;3.85;;
23306;SDS011;11822;52.470;10.688;2022-08-04T00:32:19;6.60;;;3.80;;
23306;SDS011;11822;52.470;10.688;2022-08-04T00:34:45;4.57;;;3.85;;
23306;SDS011;11822;52.470;10.688;2022-08-04T00:37:12;6.22;;;3.72;;
23306;SDS011;11822;52.470;10.688;2022-08-04T00:39:38;6.32;;;3.72;;
23306;SDS011;11822;52.470;10.688;2022-08-04T01:20:33;5.38;;;4.63;;
23306;SDS011;11822;52.470;10.688;2022-08-04T01:23:34;7.15;;;4.45;;
23306;SDS011;11822;52.470;10.688;2022-08-04T01:31:49;7.85;;;4.78;;
23306;SDS011;11822;52.470;10.688;2022-08-04T01:34:18;6.18;;;4.50;;
23306;SDS011;11822;52.470;10.688;2022-08-04T01:36:46;6.20;;;4.10;;
23306;SDS011;11822;52.470;10.688;2022-08-04T01:39:20;12.52;;;4.90;;
23306;SDS011;11822;52.470;10.688;2022-08-04T01:42:04;9.90;;;4.63;;
23306;SDS011;11822;52.470;10.688;2022-08-04T01:44:30;10.30;;;4.65;;
23306;SDS011;11822;52.470;10.688;2022-08-04T01:46:58;8.25;;;4.88;;
23306;SDS011;11822;52.470;10.688;2022-08-04T01:49:27;7.82;;;4.25;;
23306;SDS011;11822;52.470;10.688;2022-08-04T01:51:55;7.13;;;4.40;;
23306;SDS011;11822;52.470;10.688;2022-08-04T01:54:21;11.30;;;4.60;;
23306;SDS011;11822;52.470;10.688;2022-08-04T01:56:48;8.68;;;4.72;;
23306;SDS011;11822;52.470;10.688;2022-08-04T01:59:16;4.70;;;4.22;;
23306;SDS011;11822;52.470;10.688;2022-08-04T02:01:43;6.50;;;4.78;;
23306;SDS011;11822;52.470;10.688;2022-08-04T02:04:15;5.85;;;4.57;;
23306;SDS011;11822;52.470;10.688;2022-08-04T02:09:16;4.63;;;4.22;;
23306;SDS011;11822;52.470;10.688;2022-08-04T02:12:04;7.15;;;4.35;;
23306;SDS011;11822;52.470;10.688;2022-08-04T02:15:12;5.20;;;4.35;;
23306;SDS011;11822;52.470;10.688;2022-08-04T02:17:49;6.93;;;4.80;;
23306;SDS011;11822;52.470;10.688;2022-08-04T02:20:24;9.07;;;4.50;;
23306;SDS011;11822;52.470;10.688;2022-08-04T02:22:57;5.30;;;4.57;;
23306;SDS011;11822;52.470;10.688;2022-08-04T02:25:25;7.68;;;5.22;;
23306;SDS011;11822;52.470;10.688;2022-08-04T02:28:00;7.20;;;4.85;;
23306;SDS011;11822;52.470;10.688;2022-08-04T02:30:39;5.25;;;4.75;;
23306;SDS011;11822;52.470;10.688;2022-08-04T02:33:16;6.35;;;5.03;;
23306;SDS011;11822;52.470;10.688;2022-08-04T02:35:45;9.32;;;5.30;;
23306;SDS011;11822;52.470;10.688;2022-08-04T02:38:23;6.53;;;5.18;;
23306;SDS011;11822;52.470;10.688;2022-08-04T02:41:00;8.10;;;5.03;;
23306;SDS011;11822;52.470;10.688;2022-08-04T02:43:28;8.82;;;5.40;;
23306;SDS011;11822;52.470;10.688;2022-08-04T02:45:55;8.27;;;5.10;;
23306;SDS011;11822;52.470;10.688;2022-08-04T02:48:22;11.82;;;5.25;;
23306;SDS011;11822;52.470;10.688;2022-08-04T02:50:51;6.28;;;5.40;;
23306;SDS011;11822;52.470;10.688;2022-08-04T02:53:19;7.88;;;5.10;;
23306;SDS011;11822;52.470;10.688;2022-08-04T02:55:46;6.65;;;4.97;;
23306;SDS011;11822;52.470;10.688;2022-08-04T02:58:14;8.57;;;5.25;;
23306;SDS011;11822;52.470;10.688;2022-08-04T03:00:43;5.93;;;5.18;;
23306;SDS011;11822;52.470;10.688;2022-08-04T03:25:32;5.72;;;4.60;;
23306;SDS011;11822;52.470;10.688;2022-08-04T03:53:00;7.38;;;5.43;;
23306;SDS011;11822;52.470;10.688;2022-08-04T04:39:22;8.43;;;5.43;;
23306;SDS011;11822;52.470;10.688;2022-08-04T04:44:58;6.88;;;5.45;;
23306;SDS011;11822;52.470;10.688;2022-08-04T04:50:14;6.55;;;5.18;;
23306;SDS011;11822;52.470;10.688;2022-08-04T04:53:00;8.93;;;4.70;;
23306;SDS011;11822;52.470;10.688;2022-08-04T04:55:32;8.10;;;5.30;;
23306;SDS011;11822;52.470;10.688;2022-08-04T04:58:04;8.77;;;4.75;;
23306;SDS011;11822;52.470;10.688;2022-08-04T05:01:02;7.85;;;4.75;;
23306;SDS011;11822;52.470;10.688;2022-08-04T05:14:09;6.82;;;6.07;;
23306;SDS011;11822;52.470;10.688;2022-08-04T05:16:39;11.25;;;5.78;;
23306;SDS011;11822;52.470;10.688;2022-08-04T05:19:30;8.93;;;5.82;;
23306;SDS011;11822;52.470;10.688;2022-08-04T05:24:36;6.60;;;5.10;;
23306;SDS011;11822;52.470;10.688;2022-08-04T05:27:07;8.48;;;5.25;;
23306;SDS011;11822;52.470;10.688;2022-08-04T05:29:41;11.00;;;6.03;;
23306;SDS011;11822;52.470;10.688;2022-08-04T05:32:34;8.55;;;5.68;;
23306;SDS011;11822;52.470;10.688;2022-08-04T05:35:08;8.80;;;5.43;;
23306;SDS011;11822;52.470;10.688;2022-08-04T05:37:37;7.70;;;5.53;;
23306;SDS011;11822;52.470;10.688;2022-08-04T05:40:05;9.18;;;5.38;;
23306;SDS011;11822;52.470;10.688;2022-08-04T05:42:31;9.48;;;5.78;;
23306;SDS011;11822;52.470;10.688;2022-08-04T05:45:01;7.82;;;5.70;;
23306;SDS011;11822;52.470;10.688;2022-08-04T05:47:28;5.55;;;5.05;;
23306;SDS011;11822;52.470;10.688;2022-08-04T05:49:56;8.00;;;5.30;;
23306;SDS011;11822;52.470;10.688;2022-08-04T05:52:24;7.82;;;5.15;;
23306;SDS011;11822;52.470;10.688;2022-08-04T05:54:51;7.90;;;4.78;;
23306;SDS011;11822;52.470;10.688;2022-08-04T05:57:17;11.43;;;5.03;;
23306;SDS011;11822;52.470;10.688;2022-08-04T05:59:43;10.95;;;5.13;;
23306;SDS011;11822;52.470;10.688;2022-08-04T06:02:13;10.23;;;5.00;;
23306;SDS011;11822;52.470;10.688;2022-08-04T06:04:41;7.10;;;4.28;;
23306;SDS011;11822;52.470;10.688;2022-08-04T06:07:09;8.70;;;4.43;;
23306;SDS011;11822;52.470;10.688;2022-08-04T06:09:38;8.25;;;4.38;;
23306;SDS011;11822;52.470;10.688;2022-08-04T06:12:10;7.38;;;4.25;;
23306;SDS011;11822;52.470;10.688;2022-08-04T06:14:41;8.15;;;4.45;;
23306;SDS011;11822;52.470;10.688;2022-08-04T06:17:09;14.23;;;4.78;;
23306;SDS011;11822;52.470;10.688;2022-08-04T06:19:39;18.02;;;4.80;;
23306;SDS011;11822;52.470;10.688;2022-08-04T06:22:05;15.43;;;4.70;;
23306;SDS011;11822;52.470;10.688;2022-08-04T06:24:35;13.20;;;4.10;;
23306;SDS011;11822;52.470;10.688;2022-08-04T06:27:03;16.50;;;4.20;;
23306;SDS011;11822;52.470;10.688;2022-08-04T06:29:30;18.35;;;4.28;;
23306;SDS011;11822;52.470;10.688;2022-08-04T06:32:06;14.75;;;4.43;;
23306;SDS011;11822;52.470;10.688;2022-08-04T06:34:56;21.67;;;4.47;;
23306;SDS011;11822;52.470;10.688;2022-08-04T06:37:24;12.43;;;4.10;;
23306;SDS011;11822;52.470;10.688;2022-08-04T06:39:51;16.42;;;3.95;;
23306;SDS011;11822;52.470;10.688;2022-08-04T06:42:17;15.95;;;3.97;;
23306;SDS011;11822;52.470;10.688;2022-08-04T06:44:48;13.52;;;4.50;;
23306;SDS011;11822;52.470;10.688;2022-08-04T06:47:18;11.77;;;3.80;;
23306;SDS011;11822;52.470;10.688;2022-08-04T06:49:50;8.00;;;3.90;;
23306;SDS011;11822;52.470;10.688;2022-08-04T06:52:17;7.78;;;3.60;;
23306;SDS011;11822;52.470;10.688;2022-08-04T06:54:45;6.88;;;3.00;;
23306;SDS011;11822;52.470;10.688;2022-08-04T06:57:12;4.03;;;3.38;;
23306;SDS011;11822;52.470;10.688;2022-08-04T06:59:44;6.50;;;2.95;;
23306;SDS011;11822;52.470;10.688;2022-08-04T07:02:20;4.75;;;3.80;;
23306;SDS011;11822;52.470;10.688;2022-08-04T07:04:51;3.45;;;3.15;;
23306;SDS011;11822;52.470;10.688;2022-08-04T07:07:17;7.35;;;2.90;;
23306;SDS011;11822;52.470;10.688;2022-08-04T07:09:43;6.25;;;3.03;;
23306;SDS011;11822;52.470;10.688;2022-08-04T07:12:09;5.00;;;2.90;;
23306;SDS011;11822;52.470;10.688;2022-08-04T07:14:35;7.95;;;3.00;;
23306;SDS011;11822;52.470;10.688;2022-08-04T07:17:04;4.40;;;2.90;;
23306;SDS011;11822;52.470;10.688;2022-08-04T07:19:32;3.67;;;3.00;;
23306;SDS011;11822;52.470;10.688;2022-08-04T07:22:04;8.05;;;2.90;;
23306;SDS011;11822;52.470;10.688;2022-08-04T07:24:33;5.65;;;2.80;;
23306;SDS011;11822;52.470;10.688;2022-08-04T07:27:00;7.30;;;3.20;;
23306;SDS011;11822;52.470;10.688;2022-08-04T07:29:27;10.68;;;2.85;;
23306;SDS011;11822;52.470;10.688;2022-08-04T07:31:53;6.43;;;2.90;;
23306;SDS011;11822;52.470;10.688;2022-08-04T07:34:21;7.28;;;2.70;;
23306;SDS011;11822;52.470;10.688;2022-08-04T07:36:50;7.63;;;2.90;;
23306;SDS011;11822;52.470;10.688;2022-08-04T07:39:19;4.77;;;2.80;;
23306;SDS011;11822;52.470;10.688;2022-08-04T07:41:46;3.75;;;2.40;;
23306;SDS011;11822;52.470;10.688;2022-08-04T07:44:13;9.30;;;2.90;;
23306;SDS011;11822;52.470;10.688;2022-08-04T07:46:39;4.13;;;2.20;;
23306;SDS011;11822;52.470;10.688;2022-08-04T07:49:05;6.78;;;2.13;;
23306;SDS011;11822;52.470;10.688;2022-08-04T07:51:32;4.65;;;2.53;;
23306;SDS011;11822;52.470;10.688;2022-08-04T07:53:59;5.40;;;2.40;;
23306;SDS011;11822;52.470;10.688;2022-08-04T07:56:27;6.28;;;2.40;;
23306;SDS011;11822;52.470;10.688;2022-08-04T07:58:53;6.78;;;2.33;;
23306;SDS011;11822;52.470;10.688;2022-08-04T08:01:19;6.93;;;2.10;;
23306;SDS011;11822;52.470;10.688;2022-08-04T08:03:45;4.32;;;1.95;;
23306;SDS011;11822;52.470;10.688;2022-08-04T08:06:11;3.63;;;2.03;;
23306;SDS011;11822;52.470;10.688;2022-08-04T08:08:37;3.30;;;2.30;;
23306;SDS011;11822;52.470;10.688;2022-08-04T08:11:04;8.07;;;2.38;;
23306;SDS011;11822;52.470;10.688;2022-08-04T08:13:31;6.22;;;2.40;;
23306;SDS011;11822;52.470;10.688;2022-08-04T08:15:57;4.35;;;2.10;;
23306;SDS011;11822;52.470;10.688;2022-08-04T08:18:23;2.65;;;2.15;;
23306;SDS011;11822;52.470;10.688;2022-08-04T08:20:49;7.00;;;2.13;;
23306;SDS011;11822;52.470;10.688;2022-08-04T08:23:16;5.00;;;2.08;;
23306;SDS011;11822;52.470;10.688;2022-08-04T08:25:42;7.25;;;2.13;;
23306;SDS011;11822;52.470;10.688;2022-08-04T08:28:07;5.43;;;2.10;;
23306;SDS011;11822;52.470;10.688;2022-08-04T08:30:34;6.65;;;2.33;;
23306;SDS011;11822;52.470;10.688;2022-08-04T08:33:00;4.10;;;1.95;;
23306;SDS011;11822;52.470;10.688;2022-08-04T08:35:27;7.07;;;1.90;;
23306;SDS011;11822;52.470;10.688;2022-08-04T08:37:58;3.78;;;1.88;;
23306;SDS011;11822;52.470;10.688;2022-08-04T08:40:42;6.35;;;2.05;;
23306;SDS011;11822;52.470;10.688;2022-08-04T08:52:16;2.17;;;1.70;;
23306;SDS011;11822;52.470;10.688;2022-08-04T09:00:13;7.22;;;1.77;;
23306;SDS011;11822;52.470;10.688;2022-08-04T09:11:14;5.68;;;1.70;;
23306;SDS011;11822;52.470;10.688;2022-08-04T09:13:44;4.22;;;1.77;;
23306;SDS011;11822;52.470;10.688;2022-08-04T09:30:06;4.67;;;1.43;;
23306;SDS011;11822;52.470;10.688;2022-08-04T09:35:05;4.28;;;1.38;;
23306;SDS011;11822;52.470;10.688;2022-08-04T09:50:58;2.88;;;1.48;;
23306;SDS011;11822;52.470;10.688;2022-08-04T09:58:38;4.50;;;1.50;;
23306;SDS011;11822;52.470;10.688;2022-08-04T10:01:12;3.65;;;1.30;;
23306;SDS011;11822;52.470;10.688;2022-08-04T10:03:42;5.20;;;1.40;;
23306;SDS011;11822;52.470;10.688;2022-08-04T10:11:51;3.38;;;1.20;;
23306;SDS011;11822;52.470;10.688;2022-08-04T10:19:33;3.35;;;1.55;;
23306;SDS011;11822;52.470;10.688;2022-08-04T10:27:23;2.78;;;1.20;;
23306;SDS011;11822;52.470;10.688;2022-08-04T10:29:56;1.48;;;1.20;;
23306;SDS011;11822;52.470;10.688;2022-08-04T10:32:39;6.13;;;1.50;;
23306;SDS011;11822;52.470;10.688;2022-08-04T10:40:22;9.15;;;1.65;;
23306;SDS011;11822;52.470;10.688;2022-08-04T10:45:48;4.72;;;1.65;;
23306;SDS011;11822;52.470;10.688;2022-08-04T10:50:59;3.22;;;1.35;;
23306;SDS011;11822;52.470;10.688;2022-08-04T10:53:30;1.73;;;1.60;;
23306;SDS011;11822;52.470;10.688;2022-08-04T10:56:03;4.90;;;1.50;;
23306;SDS011;11822;52.470;10.688;2022-08-04T10:58:52;5.03;;;1.50;;
23306;SDS011;11822;52.470;10.688;2022-08-04T11:01:24;4.50;;;1.60;;
23306;SDS011;11822;52.470;10.688;2022-08-04T11:04:00;8.07;;;1.60;;
23306;SDS011;11822;52.470;10.688;2022-08-04T11:06:29;5.10;;;1.42;;
23306;SDS011;11822;52.470;10.688;2022-08-04T11:08:56;7.72;;;1.65;;
23306;SDS011;11822;52.470;10.688;2022-08-04T11:11:38;1.83;;;1.55;;
23306;SDS011;11822;52.470;10.688;2022-08-04T11:14:15;2.75;;;1.40;;
23306;SDS011;11822;52.470;10.688;2022-08-04T11:22:04;2.75;;;1.60;;
23306;SDS011;11822;52.470;10.688;2022-08-04T11:30:04;4.68;;;1.83;;
23306;SDS011;11822;52.470;10.688;2022-08-04T11:32:36;6.00;;;1.70;;
23306;SDS011;11822;52.470;10.688;2022-08-04T11:35:11;4.60;;;1.67;;
23306;SDS011;11822;52.470;10.688;2022-08-04T11:37:50;4.38;;;1.40;;
23306;SDS011;11822;52.470;10.688;2022-08-04T11:40:28;3.67;;;1.63;;
23306;SDS011;11822;52.470;10.688;2022-08-04T11:43:01;9.75;;;1.50;;
23306;SDS011;11822;52.470;10.688;2022-08-04T11:45:33;12.40;;;1.60;;
23306;SDS011;11822;52.470;10.688;2022-08-04T11:48:16;5.95;;;1.65;;
23306;SDS011;11822;52.470;10.688;2022-08-04T11:50:49;4.82;;;1.60;;
23306;SDS011;11822;52.470;10.688;2022-08-04T11:53:17;2.35;;;1.60;;
23306;SDS011;11822;52.470;10.688;2022-08-04T11:55:48;5.82;;;1.88;;
23306;SDS011;11822;52.470;10.688;2022-08-04T11:58:16;6.07;;;2.25;;
23306;SDS011;11822;52.470;10.688;2022-08-04T12:00:51;1.75;;;1.48;;
23306;SDS011;11822;52.470;10.688;2022-08-04T12:06:12;1.73;;;1.33;;
23306;SDS011;11822;52.470;10.688;2022-08-04T12:08:44;2.45;;;1.40;;
23306;SDS011;11822;52.470;10.688;2022-08-04T12:22:17;5.10;;;1.30;;
23306;SDS011;11822;52.470;10.688;2022-08-04T12:24:48;7.75;;;1.45;;
23306;SDS011;11822;52.470;10.688;2022-08-04T12:27:35;6.18;;;1.60;;
23306;SDS011;11822;52.470;10.688;2022-08-04T12:30:05;4.43;;;1.75;;
23306;SDS011;11822;52.470;10.688;2022-08-04T12:32:40;5.28;;;1.80;;
23306;SDS011;11822;52.470;10.688;2022-08-04T12:40:54;4.53;;;1.58;;
23306;SDS011;11822;52.470;10.688;2022-08-04T12:43:23;3.15;;;1.70;;
23306;SDS011;11822;52.470;10.688;2022-08-04T12:45:51;2.47;;;1.73;;
23306;SDS011;11822;52.470;10.688;2022-08-04T12:48:19;4.07;;;1.50;;
23306;SDS011;11822;52.470;10.688;2022-08-04T12:50:51;3.97;;;1.80;;
23306;SDS011;11822;52.470;10.688;2022-08-04T12:53:18;3.28;;;1.52;;
23306;SDS011;11822;52.470;10.688;2022-08-04T12:55:48;1.60;;;1.50;;
23306;SDS011;11822;52.470;10.688;2022-08-04T12:58:19;1.55;;;1.35;;
23306;SDS011;11822;52.470;10.688;2022-08-04T13:00:52;2.63;;;1.45;;
23306;SDS011;11822;52.470;10.688;2022-08-04T13:03:21;5.72;;;1.67;;
23306;SDS011;11822;52.470;10.688;2022-08-04T13:05:52;1.70;;;1.20;;
23306;SDS011;11822;52.470;10.688;2022-08-04T13:08:19;1.17;;;1.08;;
23306;SDS011;11822;52.470;10.688;2022-08-04T13:10:46;2.92;;;1.10;;
23306;SDS011;11822;52.470;10.688;2022-08-04T13:13:18;1.48;;;1.30;;
23306;SDS011;11822;52.470;10.688;2022-08-04T13:15:55;4.65;;;1.30;;
23306;SDS011;11822;52.470;10.688;2022-08-04T13:18:21;1.83;;;1.42;;
23306;SDS011;11822;52.470;10.688;2022-08-04T13:20:47;4.10;;;1.38;;
23306;SDS011;11822;52.470;10.688;2022-08-04T13:23:14;5.03;;;1.58;;
23306;SDS011;11822;52.470;10.688;2022-08-04T13:25:42;2.83;;;1.60;;
23306;SDS011;11822;52.470;10.688;2022-08-04T13:28:19;3.72;;;1.35;;
23306;SDS011;11822;52.470;10.688;2022-08-04T13:30:52;3.28;;;1.30;;
23306;SDS011;11822;52.470;10.688;2022-08-04T13:33:20;1.52;;;1.42;;
23306;SDS011;11822;52.470;10.688;2022-08-04T13:35:52;1.50;;;1.17;;
23306;SDS011;11822;52.470;10.688;2022-08-04T13:38:17;3.50;;;1.40;;
23306;SDS011;11822;52.470;10.688;2022-08-04T13:40:44;4.35;;;1.40;;
23306;SDS011;11822;52.470;10.688;2022-08-04T13:43:12;3.13;;;1.63;;
23306;SDS011;11822;52.470;10.688;2022-08-04T13:45:50;1.42;;;1.15;;
23306;SDS011;11822;52.470;10.688;2022-08-04T13:48:23;2.03;;;1.33;;
23306;SDS011;11822;52.470;10.688;2022-08-04T13:50:49;2.38;;;1.50;;
23306;SDS011;11822;52.470;10.688;2022-08-04T13:53:16;1.80;;;1.40;;
23306;SDS011;11822;52.470;10.688;2022-08-04T13:55:42;1.60;;;1.50;;
23306;SDS011;11822;52.470;10.688;2022-08-04T13:58:18;3.83;;;1.48;;
23306;SDS011;11822;52.470;10.688;2022-08-04T14:00:48;4.18;;;1.63;;
23306;SDS011;11822;52.470;10.688;2022-08-04T14:03:21;2.30;;;1.30;;
23306;SDS011;11822;52.470;10.688;2022-08-04T14:08:33;11.63;;;2.40;;
23306;SDS011;11822;52.470;10.688;2022-08-04T14:11:07;5.88;;;1.58;;
23306;SDS011;11822;52.470;10.688;2022-08-04T14:13:33;1.83;;;1.38;;
23306;SDS011;11822;52.470;10.688;2022-08-04T14:15:59;6.57;;;1.60;;
23306;SDS011;11822;52.470;10.688;2022-08-04T14:18:28;13.35;;;2.65;;
23306;SDS011;11822;52.470;10.688;2022-08-04T14:20:57;3.58;;;1.45;;
23306;SDS011;11822;52.470;10.688;2022-08-04T14:23:22;3.50;;;1.50;;
23306;SDS011;11822;52.470;10.688;2022-08-04T14:25:48;4.30;;;1.70;;
23306;SDS011;11822;52.470;10.688;2022-08-04T14:28:13;2.25;;;1.30;;
23306;SDS011;11822;52.470;10.688;2022-08-04T14:33:36;3.22;;;1.30;;
23306;SDS011;11822;52.470;10.688;2022-08-04T14:36:05;3.42;;;1.60;;
23306;SDS011;11822;52.470;10.688;2022-08-04T14:41:12;2.90;;;1.45;;
23306;SDS011;11822;52.470;10.688;2022-08-04T14:43:57;3.28;;;1.30;;
23306;SDS011;11822;52.470;10.688;2022-08-04T14:46:25;4.25;;;1.60;;
23306;SDS011;11822;52.470;10.688;2022-08-04T14:49:02;6.30;;;1.60;;
23306;SDS011;11822;52.470;10.688;2022-08-04T14:51:32;2.83;;;1.25;;
23306;SDS011;11822;52.470;10.688;2022-08-04T14:53:59;3.85;;;1.55;;
23306;SDS011;11822;52.470;10.688;2022-08-04T14:56:25;4.07;;;1.30;;
23306;SDS011;11822;52.470;10.688;2022-08-04T14:58:58;4.00;;;1.70;;
23306;SDS011;11822;52.470;10.688;2022-08-04T15:01:25;2.80;;;1.23;;
23306;SDS011;11822;52.470;10.688;2022-08-04T15:03:52;4.07;;;1.33;;
23306;SDS011;11822;52.470;10.688;2022-08-04T15:06:19;1.85;;;1.30;;
23306;SDS011;11822;52.470;10.688;2022-08-04T15:08:46;3.75;;;1.52;;
23306;SDS011;11822;52.470;10.688;2022-08-04T15:11:14;3.75;;;1.20;;
23306;SDS011;11822;52.470;10.688;2022-08-04T15:13:40;5.60;;;1.40;;
23306;SDS011;11822;52.470;10.688;2022-08-04T15:16:05;3.33;;;1.40;;
23306;SDS011;11822;52.470;10.688;2022-08-04T15:18:31;2.30;;;1.48;;
23306;SDS011;11822;52.470;10.688;2022-08-04T15:20:56;2.95;;;1.60;;
23306;SDS011;11822;52.470;10.688;2022-08-04T15:23:23;3.55;;;1.55;;
23306;SDS011;11822;52.470;10.688;2022-08-04T15:25:50;4.32;;;1.42;;
23306;SDS011;11822;52.470;10.688;2022-08-04T15:28:18;6.30;;;1.50;;
23306;SDS011;11822;52.470;10.688;2022-08-04T15:30:47;2.17;;;1.38;;
23306;SDS011;11822;52.470;10.688;2022-08-04T15:33:14;4.53;;;1.30;;
23306;SDS011;11822;52.470;10.688;2022-08-04T15:35:45;4.82;;;1.45;;
23306;SDS011;11822;52.470;10.688;2022-08-04T15:38:25;2.95;;;1.40;;
23306;SDS011;11822;52.470;10.688;2022-08-04T15:47:12;2.25;;;1.50;;
23306;SDS011;11822;52.470;10.688;2022-08-04T15:49:21;4.18;;;1.70;;
23306;SDS011;11822;52.470;10.688;2022-08-04T15:52:03;3.63;;;1.73;;
23306;SDS011;11822;52.470;10.688;2022-08-04T15:56:56;3.40;;;1.40;;
23306;SDS011;11822;52.470;10.688;2022-08-04T16:12:54;5.15;;;1.63;;
23306;SDS011;11822;52.470;10.688;2022-08-04T16:18:08;8.55;;;2.60;;
23306;SDS011;11822;52.470;10.688;2022-08-04T16:20:34;7.72;;;3.00;;
23306;SDS011;11822;52.470;10.688;2022-08-04T16:23:15;14.73;;;4.82;;
23306;SDS011;11822;52.470;10.688;2022-08-04T16:25:41;11.02;;;4.03;;
23306;SDS011;11822;52.470;10.688;2022-08-04T16:28:31;8.63;;;3.13;;
23306;SDS011;11822;52.470;10.688;2022-08-04T16:31:11;8.80;;;3.00;;
23306;SDS011;11822;52.470;10.688;2022-08-04T16:33:37;7.32;;;3.22;;
23306;SDS011;11822;52.470;10.688;2022-08-04T16:36:05;7.63;;;3.30;;
23306;SDS011;11822;52.470;10.688;2022-08-04T16:38:32;10.05;;;4.28;;
23306;SDS011;11822;52.470;10.688;2022-08-04T16:41:36;7.97;;;3.38;;
23306;SDS011;11822;52.470;10.688;2022-08-04T16:46:52;5.43;;;2.72;;
23306;SDS011;11822;52.470;10.688;2022-08-04T16:49:18;7.38;;;3.20;;
23306;SDS011;11822;52.470;10.688;2022-08-04T16:51:43;7.20;;;2.90;;
23306;SDS011;11822;52.470;10.688;2022-08-04T16:54:09;8.02;;;2.67;;
23306;SDS011;11822;52.470;10.688;2022-08-04T16:56:34;5.32;;;2.70;;
23306;SDS011;11822;52.470;10.688;2022-08-04T16:59:07;4.88;;;2.53;;
23306;SDS011;11822;52.470;10.688;2022-08-04T17:01:33;4.85;;;2.45;;
23306;SDS011;11822;52.470;10.688;2022-08-04T17:03:59;4.60;;;3.00;;
23306;SDS011;11822;52.470;10.688;2022-08-04T17:06:39;9.23;;;2.60;;
23306;SDS011;11822;52.470;10.688;2022-08-04T17:09:09;6.22;;;2.90;;
23306;SDS011;11822;52.470;10.688;2022-08-04T17:11:43;6.68;;;3.15;;
23306;SDS011;11822;52.470;10.688;2022-08-04T17:14:10;4.97;;;3.03;;
23306;SDS011;11822;52.470;10.688;2022-08-04T17:16:37;4.47;;;2.78;;
23306;SDS011;11822;52.470;10.688;2022-08-04T17:19:04;5.10;;;3.00;;
23306;SDS011;11822;52.470;10.688;2022-08-04T17:21:32;10.15;;;4.50;;
23306;SDS011;11822;52.470;10.688;2022-08-04T17:24:00;12.52;;;5.88;;
23306;SDS011;11822;52.470;10.688;2022-08-04T17:26:27;10.93;;;6.22;;
23306;SDS011;11822;52.470;10.688;2022-08-04T17:28:55;11.95;;;5.57;;
23306;SDS011;11822;52.470;10.688;2022-08-04T17:31:22;15.40;;;3.72;;
23306;SDS011;11822;52.470;10.688;2022-08-04T17:33:51;8.82;;;2.67;;
23306;SDS011;11822;52.470;10.688;2022-08-04T17:36:21;19.70;;;2.92;;
23306;SDS011;11822;52.470;10.688;2022-08-04T17:38:53;12.20;;;2.40;;
23306;SDS011;11822;52.470;10.688;2022-08-04T17:41:20;13.50;;;2.33;;
23306;SDS011;11822;52.470;10.688;2022-08-04T17:43:51;10.82;;;2.80;;
23306;SDS011;11822;52.470;10.688;2022-08-04T17:48:55;12.80;;;2.30;;
23306;SDS011;11822;52.470;10.688;2022-08-04T17:51:31;10.60;;;2.20;;
23306;SDS011;11822;52.470;10.688;2022-08-04T17:54:03;11.90;;;2.50;;
23306;SDS011;11822;52.470;10.688;2022-08-04T17:56:34;10.63;;;2.58;;
23306;SDS011;11822;52.470;10.688;2022-08-04T18:01:42;21.70;;;2.88;;
23306;SDS011;11822;52.470;10.688;2022-08-04T18:09:34;21.00;;;2.97;;
23306;SDS011;11822;52.470;10.688;2022-08-04T18:12:29;14.38;;;2.78;;
23306;SDS011;11822;52.470;10.688;2022-08-04T18:20:10;23.50;;;3.33;;
23306;SDS011;11822;52.470;10.688;2022-08-04T18:22:39;15.48;;;3.10;;
23306;SDS011;11822;52.470;10.688;2022-08-04T18:25:08;21.63;;;2.65;;
23306;SDS011;11822;52.470;10.688;2022-08-04T18:27:44;19.65;;;2.80;;
23306;SDS011;11822;52.470;10.688;2022-08-04T18:30:24;22.38;;;3.17;;
23306;SDS011;11822;52.470;10.688;2022-08-04T18:32:52;14.88;;;2.50;;
23306;SDS011;11822;52.470;10.688;2022-08-04T18:35:19;8.38;;;2.75;;
23306;SDS011;11822;52.470;10.688;2022-08-04T18:37:46;27.23;;;3.08;;
23306;SDS011;11822;52.470;10.688;2022-08-04T18:40:11;18.83;;;2.50;;
23306;SDS011;11822;52.470;10.688;2022-08-04T18:42:39;21.35;;;2.72;;
23306;SDS011;11822;52.470;10.688;2022-08-04T18:45:05;13.85;;;2.58;;
23306;SDS011;11822;52.470;10.688;2022-08-04T18:47:30;15.88;;;2.28;;
23306;SDS011;11822;52.470;10.688;2022-08-04T18:49:56;19.17;;;2.42;;
23306;SDS011;11822;52.470;10.688;2022-08-04T18:52:22;22.88;;;2.97;;
23306;SDS011;11822;52.470;10.688;2022-08-04T18:54:47;19.00;;;2.85;;
23306;SDS011;11822;52.470;10.688;2022-08-04T18:57:20;20.98;;;3.35;;
23306;SDS011;11822;52.470;10.688;2022-08-04T18:59:46;18.53;;;2.73;;
23306;SDS011;11822;52.470;10.688;2022-08-04T19:02:11;24.17;;;3.10;;
23306;SDS011;11822;52.470;10.688;2022-08-04T19:04:38;13.07;;;2.80;;
23306;SDS011;11822;52.470;10.688;2022-08-04T19:07:03;27.77;;;3.05;;
23306;SDS011;11822;52.470;10.688;2022-08-04T19:09:29;13.63;;;2.53;;
23306;SDS011;11822;52.470;10.688;2022-08-04T19:11:55;16.15;;;2.80;;
23306;SDS011;11822;52.470;10.688;2022-08-04T19:14:21;14.52;;;2.95;;
23306;SDS011;11822;52.470;10.688;2022-08-04T19:16:46;18.45;;;2.50;;
23306;SDS011;11822;52.470;10.688;2022-08-04T19:19:12;12.98;;;2.53;;
23306;SDS011;11822;52.470;10.688;2022-08-04T19:21:39;24.65;;;5.53;;
23306;SDS011;11822;52.470;10.688;2022-08-04T19:24:05;19.48;;;4.93;;
23306;SDS011;11822;52.470;10.688;2022-08-04T19:26:31;17.35;;;3.15;;
23306;SDS011;11822;52.470;10.688;2022-08-04T19:28:56;13.23;;;2.72;;
23306;SDS011;11822;52.470;10.688;2022-08-04T19:31:21;12.15;;;2.78;;
23306;SDS011;11822;52.470;10.688;2022-08-04T19:33:47;13.85;;;2.83;;
23306;SDS011;11822;52.470;10.688;2022-08-04T19:36:12;18.90;;;3.22;;
23306;SDS011;11822;52.470;10.688;2022-08-04T19:38:38;14.02;;;3.00;;
23306;SDS011;11822;52.470;10.688;2022-08-04T19:41:04;13.30;;;3.13;;
23306;SDS011;11822;52.470;10.688;2022-08-04T19:43:30;16.25;;;2.90;;
23306;SDS011;11822;52.470;10.688;2022-08-04T19:45:56;12.80;;;3.47;;
23306;SDS011;11822;52.470;10.688;2022-08-04T19:48:22;13.95;;;3.17;;
23306;SDS011;11822;52.470;10.688;2022-08-04T19:50:47;14.10;;;3.08;;
23306;SDS011;11822;52.470;10.688;2022-08-04T19:53:13;8.35;;;2.72;;
23306;SDS011;11822;52.470;10.688;2022-08-04T19:55:40;8.75;;;3.05;;
23306;SDS011;11822;52.470;10.688;2022-08-04T19:58:06;15.15;;;3.00;;
23306;SDS011;11822;52.470;10.688;2022-08-04T20:00:32;16.85;;;3.58;;
23306;SDS011;11822;52.470;10.688;2022-08-04T20:02:58;11.30;;;3.15;;
23306;SDS011;11822;52.470;10.688;2022-08-04T20:05:24;14.93;;;3.58;;
23306;SDS011;11822;52.470;10.688;2022-08-04T20:07:50;14.02;;;3.35;;
23306;SDS011;11822;52.470;10.688;2022-08-04T20:10:16;11.73;;;3.08;;
23306;SDS011;11822;52.470;10.688;2022-08-04T20:12:42;12.10;;;3.50;;
23306;SDS011;11822;52.470;10.688;2022-08-04T20:15:07;17.45;;;2.90;;
23306;SDS011;11822;52.470;10.688;2022-08-04T20:17:33;12.82;;;3.30;;